Aeroporto :
LOGIN :

Iscrizione | Disclaimer

   EN    FR    IT 

 










Sommario :    VFR   VFR Marginale   IFR   IFR Intensivo   IFR Molto Intensivo
Visibilità : 
Base nubi : 
>= 8 km
>= 3000ft
5 / 8 km
1000 / 3000 ft
1500m / 5 km
500 / 1000 ft
800 / 1500m
200 / 500 ft
< 800m
< 200 ft
Simboli :   Temporali  Nebbia  Neve Forte  Precipitazioni Forti  Vento > 20 kt
SIGMETs :   Varie  Temporali  Ghiacco  Turbolenza  Onda orograficha  Ceneri Vulcaniche







- Altitudine del aeroporto : 287 ft
- Carte del aeroporto


LFRL - Lanveoc Poulmic

ULTIMO METAR :
  • 191430Z AUTO 19012KT 9999 FEW025 11/05 Q1020 NOSIG

METARs OBSOLETI :
  • 191400Z AUTO 20011KT 9999 FEW026 12/06 Q1020 NOSIG
  • 191330Z AUTO 19011KT 9999 FEW044 11/06 Q1021 NOSIG
  • 191300Z AUTO 19012KT 9999 SCT045 11/05 Q1021 NOSIG
  • 191230Z AUTO 19011KT 9999 FEW026 11/05 Q1021 NOSIG
  • 191200Z AUTO 18010KT 150V210 9999 FEW026 BKN240 11/06 Q1021 NOSIG

TAF TAF LFRL
Valido dal 19 a 12 ore il 20 a 12 ore UTC


191100Z 1912/2012 17010KT 9999 BKN025
BECMG 1918/1920 BKN015
BECMG 1922/1924 5000 BR BKN005 OVC010
TEMPO 2000/2009 3000 BR BKN003
PROB40
TEMPO 2003/2009 0500 FG VV///
BECMG 2009/2011 9999 NSW BKN010
Nessun NOTAM noto per questo aeroporto.
1 SIGMET conosciuto per la FIR Brest (LFRR) :
 
Turbolenza severa
LFRR SIGMET 4 VALID 191200/191600 LFPW
LFRR BREST FIR/UIR SEV TURB FCST SE OF LINE N4545 W00145 - N4400 W00345 FL180/300 STNR NC=



MetMap, La meteo Aeronautica in un colpo d'occhio ! - Copyright ORBIFLY Dicembre 2007 - Disclaimer

ORBIFLY MET'MAP TEAM :

Programmazione e sviluppo : Alexandra Zaïnal
Concezione e sviluppo : Baudouin d'Aumeries
Co-Programmazione e sviluppo : Marc-Olivier Méhu
Supporto tecnico e logistico : Manuel Goepfert
Aiuto per la traduzione : Arnaldo La Scala

Contatto : metmap@orbifly.com




FONTI E CREDITI :

   NOAA